createdAt,value
2017-07-18T00:00:26.241Z,71.30
2017-07-18T00:02:54.415Z,71.20
2017-07-18T00:05:22.612Z,71.20
2017-07-18T00:07:51.552Z,71.50
2017-07-18T00:10:19.723Z,71.50
2017-07-18T00:12:47.928Z,72.40
2017-07-18T00:15:16.102Z,71.80
2017-07-18T00:17:44.277Z,72.10
2017-07-18T00:20:12.474Z,72.30
2017-07-18T00:22:41.415Z,72.60
2017-07-18T00:25:09.589Z,72.50
2017-07-18T00:27:37.793Z,72.40
2017-07-18T00:30:05.968Z,72.60
2017-07-18T00:32:34.140Z,72.80
2017-07-18T00:35:02.340Z,72.70
2017-07-18T00:37:31.283Z,72.80
2017-07-18T00:39:59.449Z,72.70
2017-07-18T00:42:27.660Z,72.70
2017-07-18T00:44:55.827Z,72.80
2017-07-18T00:47:24.008Z,73.00
2017-07-18T00:49:52.215Z,73.40
2017-07-18T00:52:21.154Z,74.30
2017-07-18T00:54:49.328Z,74.30
2017-07-18T00:57:17.521Z,74.50
2017-07-18T00:59:45.695Z,74.60
2017-07-18T01:02:13.863Z,74.30
2017-07-18T01:04:42.062Z,74.50
2017-07-18T01:07:10.233Z,74.40
2017-07-18T01:09:38.405Z,74.40
2017-07-18T01:12:06.602Z,74.90
2017-07-18T01:14:35.544Z,75.20
2017-07-18T01:17:03.713Z,75.10
2017-07-18T01:19:31.909Z,74.80
2017-07-18T01:22:00.082Z,75.10
2017-07-18T01:24:28.251Z,74.70
2017-07-18T01:26:56.444Z,75.00
2017-07-18T01:29:24.623Z,75.30
2017-07-18T01:31:52.792Z,75.30
2017-07-18T01:34:20.992Z,75.40
2017-07-18T01:36:49.940Z,75.30
2017-07-18T01:39:18.110Z,75.30
2017-07-18T01:41:46.300Z,75.30
2017-07-18T01:44:14.459Z,75.00
2017-07-18T01:46:42.627Z,74.90
2017-07-18T01:49:10.833Z,75.50
2017-07-18T01:51:39.001Z,75.40
2017-07-18T01:54:07.182Z,75.60
2017-07-18T01:56:35.405Z,75.50
2017-07-18T01:59:03.578Z,76.20
2017-07-18T02:01:31.765Z,75.10
2017-07-18T02:03:59.964Z,75.50
2017-07-18T02:06:28.134Z,75.40
2017-07-18T02:08:56.305Z,75.70
2017-07-18T02:11:24.506Z,75.80
2017-07-18T02:13:52.672Z,75.60
2017-07-18T02:16:20.845Z,75.50
2017-07-18T02:18:49.041Z,75.90
2017-07-18T02:21:17.217Z,75.90
2017-07-18T02:23:45.390Z,75.80
2017-07-18T02:26:13.590Z,76.10
2017-07-18T02:28:42.523Z,76.10
2017-07-18T02:31:10.697Z,76.10
2017-07-18T02:33:38.892Z,75.80
2017-07-18T02:36:07.062Z,75.70
2017-07-18T02:38:35.246Z,75.70
2017-07-18T02:41:03.458Z,76.20
2017-07-18T02:43:32.401Z,76.60
2017-07-18T02:46:00.568Z,76.60
2017-07-18T02:48:28.762Z,76.70
2017-07-18T02:50:56.935Z,76.50
2017-07-18T02:53:25.110Z,76.50
2017-07-18T02:55:53.317Z,76.70
2017-07-18T02:58:22.257Z,76.70
2017-07-18T03:00:50.430Z,76.70
2017-07-18T03:03:18.630Z,76.60
2017-07-18T03:05:46.802Z,76.70
2017-07-18T03:08:14.975Z,76.60
2017-07-18T03:10:43.497Z,76.40
2017-07-18T03:13:11.673Z,76.60
2017-07-18T03:15:39.844Z,76.40
2017-07-18T03:18:08.037Z,76.30
2017-07-18T03:20:36.223Z,76.30
2017-07-18T03:23:04.401Z,76.00
2017-07-18T03:25:32.597Z,75.90
2017-07-18T03:28:01.541Z,75.80
2017-07-18T03:30:29.714Z,75.80
2017-07-18T03:32:57.923Z,75.90
2017-07-18T03:35:26.091Z,76.10
2017-07-18T03:37:54.265Z,76.00
2017-07-18T03:40:22.479Z,76.00
2017-07-18T03:42:50.654Z,75.90
2017-07-18T03:45:18.824Z,75.90
2017-07-18T03:47:47.790Z,75.50
2017-07-18T03:50:15.953Z,75.50
2017-07-18T03:52:44.126Z,75.70
2017-07-18T03:55:12.321Z,75.80
2017-07-18T03:57:40.492Z,75.60
2017-07-18T04:00:08.668Z,75.60
2017-07-18T04:02:37.643Z,75.50
2017-07-18T04:05:05.820Z,75.30
2017-07-18T04:07:33.987Z,75.30
2017-07-18T04:10:02.593Z,75.30
2017-07-18T04:12:30.769Z,75.00
2017-07-18T04:14:58.942Z,74.90
2017-07-18T04:17:27.147Z,75.20
2017-07-18T04:19:55.317Z,74.40
2017-07-18T04:22:23.513Z,74.30
2017-07-18T04:24:51.688Z,74.00
2017-07-18T04:27:19.850Z,73.70
2017-07-18T04:29:48.019Z,73.30
2017-07-18T04:32:16.199Z,73.40
2017-07-18T04:34:44.370Z,73.40
2017-07-18T04:37:12.553Z,73.40
2017-07-18T04:39:41.199Z,73.10
2017-07-18T04:42:10.170Z,72.60
2017-07-18T04:44:38.355Z,72.40
2017-07-18T04:47:06.554Z,72.50
2017-07-18T04:49:35.479Z,71.60
2017-07-18T04:52:03.657Z,71.60
2017-07-18T04:54:31.870Z,71.30
2017-07-18T04:57:00.051Z,71.20
2017-07-18T04:59:28.224Z,71.20
2017-07-18T05:01:56.424Z,71.50
2017-07-18T05:04:25.369Z,71.30
2017-07-18T05:06:53.527Z,72.00
2017-07-18T05:09:22.494Z,71.00
2017-07-18T05:11:50.666Z,70.90
2017-07-18T05:14:18.827Z,70.50
2017-07-18T05:16:47.043Z,70.70
2017-07-18T05:19:15.962Z,69.90
2017-07-18T05:21:44.111Z,69.90
2017-07-18T05:24:13.080Z,68.50
2017-07-18T05:26:41.238Z,68.40
2017-07-18T05:29:09.433Z,68.10
2017-07-18T05:31:37.641Z,68.40
2017-07-18T05:34:06.576Z,67.40
2017-07-18T05:36:34.755Z,67.40
2017-07-18T05:39:02.953Z,67.30
2017-07-18T05:41:31.128Z,66.20
2017-07-18T05:43:59.279Z,66.50
2017-07-18T05:46:27.496Z,66.50
2017-07-18T05:48:56.419Z,65.40
2017-07-18T05:51:24.578Z,65.40
2017-07-18T05:53:52.774Z,64.50
2017-07-18T05:56:20.957Z,64.60
2017-07-18T05:58:49.134Z,65.00
2017-07-18T06:01:17.314Z,64.90
2017-07-18T06:03:47.125Z,64.70
2017-07-18T06:06:15.298Z,64.70
2017-07-18T06:08:43.488Z,65.00
2017-07-18T06:11:11.669Z,63.90
2017-07-18T06:13:39.836Z,63.70
2017-07-18T06:16:08.035Z,63.60
2017-07-18T06:18:36.190Z,63.40
2017-07-18T06:21:04.344Z,62.00
2017-07-18T06:23:32.540Z,61.70
2017-07-18T06:26:00.689Z,60.90
2017-07-18T06:28:28.842Z,61.40
2017-07-18T06:30:57.033Z,61.50
2017-07-18T06:33:25.197Z,60.80
2017-07-18T06:35:53.362Z,60.80
2017-07-18T06:38:21.561Z,60.50
2017-07-18T06:40:49.720Z,60.70
2017-07-18T06:43:17.887Z,59.80
2017-07-18T06:45:46.081Z,58.80
2017-07-18T06:48:14.275Z,58.40
2017-07-18T06:50:42.435Z,57.90
2017-07-18T06:53:10.636Z,58.60
2017-07-18T06:55:38.805Z,55.40
2017-07-18T06:58:06.954Z,55.10
2017-07-18T07:00:35.139Z,54.80
2017-07-18T07:03:03.312Z,55.40
2017-07-18T07:05:31.460Z,56.30
2017-07-18T07:07:59.672Z,54.90
2017-07-18T07:10:27.819Z,54.20
2017-07-18T07:12:55.970Z,53.30
2017-07-18T07:15:24.937Z,51.80
2017-07-18T07:17:53.086Z,51.70
2017-07-18T07:20:21.258Z,51.80
2017-07-18T07:22:49.454Z,52.40
2017-07-18T07:25:17.631Z,52.30
2017-07-18T07:27:45.803Z,52.50
2017-07-18T07:30:13.994Z,52.10
2017-07-18T07:32:42.175Z,51.40
2017-07-18T07:35:11.119Z,51.70
2017-07-18T07:37:39.306Z,51.60
2017-07-18T07:40:07.476Z,51.20
2017-07-18T07:42:35.659Z,50.60
2017-07-18T07:45:03.855Z,49.90
2017-07-18T07:47:32.037Z,50.00
2017-07-18T07:50:00.977Z,52.20
2017-07-18T07:52:29.174Z,52.20
2017-07-18T07:54:57.328Z,52.20
2017-07-18T07:57:25.498Z,54.10
2017-07-18T07:59:53.688Z,54.10
2017-07-18T08:02:21.855Z,54.50
2017-07-18T08:04:50.007Z,54.50
2017-07-18T08:07:18.201Z,55.20
2017-07-18T08:09:46.398Z,54.90
2017-07-18T08:12:14.566Z,55.40
2017-07-18T08:14:42.742Z,54.90
2017-07-18T08:17:10.902Z,54.40
2017-07-18T08:19:39.054Z,54.60
2017-07-18T08:22:07.252Z,54.60
2017-07-18T08:24:35.407Z,54.00
2017-07-18T08:27:03.555Z,53.90
2017-07-18T08:29:32.508Z,53.00
2017-07-18T08:32:00.650Z,53.00
2017-07-18T08:34:28.802Z,53.10
2017-07-18T08:36:57.000Z,52.50
2017-07-18T08:39:25.145Z,52.60
2017-07-18T08:41:54.058Z,51.60
2017-07-18T08:44:22.238Z,51.60
2017-07-18T08:46:50.416Z,51.80
2017-07-18T08:49:18.585Z,51.40
2017-07-18T08:51:46.758Z,51.40
2017-07-18T08:54:14.922Z,52.40
2017-07-18T08:56:43.101Z,52.30
2017-07-18T08:59:11.279Z,51.80
2017-07-18T09:01:39.430Z,51.40
2017-07-18T09:04:08.352Z,51.30
2017-07-18T09:06:36.537Z,51.30
2017-07-18T09:09:04.695Z,49.50
2017-07-18T09:11:32.855Z,50.30
2017-07-18T09:14:01.062Z,50.50
2017-07-18T09:16:29.206Z,50.40
2017-07-18T09:18:57.380Z,49.30
2017-07-18T09:21:26.361Z,50.10
2017-07-18T09:23:55.307Z,49.10
2017-07-18T09:26:23.479Z,49.10
2017-07-18T09:28:51.681Z,49.30
2017-07-18T09:31:19.842Z,47.00
2017-07-18T09:33:48.018Z,46.70
2017-07-18T09:36:16.228Z,47.00
2017-07-18T09:38:45.162Z,45.60
2017-07-18T09:41:13.338Z,45.50
2017-07-18T09:43:41.960Z,43.80
2017-07-18T09:46:10.118Z,43.00
2017-07-18T09:48:38.270Z,42.00
2017-07-18T09:51:06.461Z,42.80
2017-07-18T09:53:34.641Z,42.60
2017-07-18T09:56:02.793Z,42.00
2017-07-18T09:58:31.005Z,42.20
2017-07-18T10:00:59.182Z,42.10
2017-07-18T10:03:27.354Z,41.20
2017-07-18T10:05:55.562Z,40.10
2017-07-18T10:08:24.512Z,40.10
2017-07-18T10:10:52.684Z,40.10
2017-07-18T10:13:20.857Z,41.10
2017-07-18T10:15:49.007Z,40.20
2017-07-18T10:18:17.154Z,40.80
2017-07-18T10:20:45.331Z,41.00
2017-07-18T10:23:13.510Z,40.20
2017-07-18T10:25:41.680Z,40.00
2017-07-18T10:28:09.870Z,39.90
2017-07-18T10:30:38.030Z,40.70
2017-07-18T10:33:06.203Z,40.20
2017-07-18T10:35:34.387Z,40.40
2017-07-18T10:38:02.554Z,39.50
2017-07-18T10:40:30.718Z,38.50
2017-07-18T10:42:59.760Z,34.00
2017-07-18T10:45:28.032Z,34.00
2017-07-18T10:47:56.182Z,34.10
2017-07-18T10:50:24.366Z,35.20
2017-07-18T10:52:52.533Z,36.40
2017-07-18T10:55:20.694Z,35.10
2017-07-18T10:57:48.882Z,31.80
2017-07-18T11:00:17.033Z,29.20
2017-07-18T11:02:45.972Z,26.00
2017-07-18T11:05:14.161Z,25.90
2017-07-18T11:07:42.314Z,24.40
2017-07-18T11:10:10.490Z,24.30
2017-07-18T11:12:38.682Z,22.90
2017-07-18T11:15:06.843Z,21.90
2017-07-18T11:17:34.985Z,20.90
2017-07-18T11:20:03.979Z,19.40
2017-07-18T11:22:32.909Z,18.40
2017-07-18T11:25:01.059Z,18.30
2017-07-18T11:27:29.245Z,18.60
2017-07-18T11:29:57.410Z,18.90
2017-07-18T11:32:25.576Z,19.50
2017-07-18T11:34:53.749Z,20.40
2017-07-18T11:37:21.930Z,22.10
2017-07-18T11:39:50.105Z,22.70
2017-07-18T11:42:18.305Z,23.30
2017-07-18T11:44:46.457Z,23.80
2017-07-18T11:47:14.637Z,25.60
2017-07-18T11:49:42.845Z,25.90
2017-07-18T11:52:11.034Z,26.90
2017-07-18T11:54:39.228Z,28.90
2017-07-18T11:57:07.430Z,30.40
2017-07-18T11:59:35.601Z,32.60
2017-07-18T12:02:03.751Z,32.20
2017-07-18T12:04:32.695Z,32.10
2017-07-18T12:07:00.851Z,32.10
2017-07-18T12:09:29.007Z,32.30
2017-07-18T12:11:57.190Z,32.20
2017-07-18T12:14:25.342Z,33.10
2017-07-18T12:16:54.274Z,34.40
2017-07-18T12:19:22.472Z,34.40
2017-07-18T12:21:50.626Z,36.00
2017-07-18T12:24:18.812Z,35.90
2017-07-18T12:26:47.005Z,36.50
2017-07-18T12:29:15.167Z,36.60
2017-07-18T12:31:43.323Z,36.70
2017-07-18T12:34:11.527Z,37.20
2017-07-18T12:36:39.803Z,35.80
2017-07-18T12:39:07.996Z,35.30
2017-07-18T12:41:36.973Z,36.00
2017-07-18T12:44:05.167Z,35.30
2017-07-18T12:46:34.094Z,36.80
2017-07-18T12:49:02.295Z,36.10
2017-07-18T12:51:30.452Z,37.00
2017-07-18T12:53:58.617Z,37.80
2017-07-18T12:56:26.802Z,36.50
2017-07-18T12:58:54.972Z,36.10
2017-07-18T13:01:23.130Z,36.60
2017-07-18T13:03:51.338Z,38.70
2017-07-18T13:06:19.490Z,37.60
2017-07-18T13:08:47.655Z,37.80
2017-07-18T13:11:15.842Z,37.20
2017-07-18T13:13:44.021Z,38.00
2017-07-18T13:16:12.191Z,38.20
2017-07-18T13:18:40.390Z,38.60
2017-07-18T13:21:08.538Z,35.70
2017-07-18T13:23:36.743Z,36.80
2017-07-18T13:26:04.961Z,35.60
2017-07-18T13:28:33.149Z,35.30
2017-07-18T13:31:01.319Z,36.60
2017-07-18T13:33:30.281Z,39.80
2017-07-18T13:35:58.466Z,39.80
2017-07-18T13:38:26.649Z,38.70
2017-07-18T13:40:55.615Z,36.20
2017-07-18T13:43:23.793Z,36.20
2017-07-18T13:45:51.972Z,36.30
2017-07-18T13:48:20.180Z,36.60
2017-07-18T13:50:49.123Z,36.80
2017-07-18T13:53:17.282Z,36.80
2017-07-18T13:55:45.466Z,37.30
2017-07-18T13:58:13.656Z,36.70
2017-07-18T14:00:41.834Z,36.60
2017-07-18T14:03:10.030Z,37.30
2017-07-18T14:05:38.968Z,37.40
2017-07-18T14:08:07.138Z,37.30
2017-07-18T14:10:35.348Z,37.60
2017-07-18T14:13:03.518Z,38.20
2017-07-18T14:15:31.691Z,38.60
2017-07-18T14:17:59.880Z,39.30
2017-07-18T14:20:28.066Z,37.80
2017-07-18T14:22:56.237Z,38.70
2017-07-18T14:25:24.451Z,39.70
2017-07-18T14:27:52.611Z,40.10
2017-07-18T14:30:26.601Z,39.80
2017-07-18T14:32:54.806Z,39.80
2017-07-18T14:35:22.969Z,39.90
2017-07-18T14:37:51.908Z,40.00
2017-07-18T14:40:20.104Z,40.00
2017-07-18T14:42:48.251Z,39.50
2017-07-18T14:45:16.433Z,39.80
2017-07-18T14:47:44.633Z,40.10
2017-07-18T14:50:12.778Z,39.40
2017-07-18T14:52:40.929Z,39.20
2017-07-18T14:55:09.120Z,39.70
2017-07-18T14:57:37.330Z,40.10
2017-07-18T15:00:05.472Z,40.70
2017-07-18T15:02:33.654Z,40.50
2017-07-18T15:05:01.802Z,41.20
2017-07-18T15:07:29.976Z,40.40
2017-07-18T15:09:58.179Z,40.10
2017-07-18T15:12:26.350Z,40.60
2017-07-18T15:14:54.519Z,40.90
2017-07-18T15:17:22.694Z,42.10
2017-07-18T15:19:50.850Z,42.80
2017-07-18T15:22:19.009Z,42.50
2017-07-18T15:24:47.972Z,43.00
2017-07-18T15:27:16.123Z,43.00
2017-07-18T15:29:44.293Z,43.10
2017-07-18T15:32:12.501Z,43.00
2017-07-18T15:34:41.442Z,42.90
2017-07-18T15:37:09.609Z,42.80
2017-07-18T15:39:37.804Z,42.10
2017-07-18T15:42:05.960Z,41.90
2017-07-18T15:44:34.105Z,41.90
2017-07-18T15:47:03.055Z,42.60
2017-07-18T15:49:31.203Z,42.60
2017-07-18T15:51:59.358Z,43.00
2017-07-18T15:54:28.318Z,43.20
2017-07-18T15:56:56.484Z,43.20
2017-07-18T15:59:24.638Z,42.90
2017-07-18T16:01:52.814Z,43.10
2017-07-18T16:04:20.983Z,42.40
2017-07-18T16:06:49.157Z,42.80
2017-07-18T16:09:17.351Z,42.90
2017-07-18T16:11:45.529Z,43.00
2017-07-18T16:14:13.692Z,43.90
2017-07-18T16:16:41.892Z,43.50
2017-07-18T16:19:10.051Z,43.50
2017-07-18T16:21:38.201Z,44.20
2017-07-18T16:24:06.401Z,44.30
2017-07-18T16:26:34.578Z,44.50
2017-07-18T16:29:02.744Z,44.40
2017-07-18T16:31:30.942Z,45.30
2017-07-18T16:33:59.094Z,44.60
2017-07-18T16:36:27.250Z,44.50
2017-07-18T16:38:55.427Z,45.20
2017-07-18T16:41:23.582Z,45.30
2017-07-18T16:43:51.768Z,44.80
2017-07-18T16:46:19.957Z,44.80
2017-07-18T16:48:48.099Z,45.60
2017-07-18T16:51:16.282Z,46.00
2017-07-18T16:53:44.453Z,46.50
2017-07-18T16:56:12.616Z,46.40
2017-07-18T16:58:41.547Z,46.90
2017-07-18T17:01:09.744Z,46.90
2017-07-18T17:03:37.907Z,46.50
2017-07-18T17:06:06.053Z,46.50
2017-07-18T17:08:34.306Z,46.40
2017-07-18T17:11:03.254Z,46.50
2017-07-18T17:13:31.421Z,46.50
2017-07-18T17:15:59.599Z,46.80
2017-07-18T17:18:27.746Z,46.90
2017-07-18T17:20:55.911Z,46.50
2017-07-18T17:23:24.116Z,46.40
2017-07-18T17:25:52.273Z,46.40
2017-07-18T17:28:20.422Z,46.90
2017-07-18T17:30:49.386Z,47.70
2017-07-18T17:33:17.540Z,47.70
2017-07-18T17:35:45.725Z,47.70
2017-07-18T17:38:13.897Z,48.20
2017-07-18T17:40:42.065Z,48.20
2017-07-18T17:43:10.210Z,48.30
2017-07-18T17:45:38.402Z,48.20
2017-07-18T17:48:06.998Z,48.10
2017-07-18T17:50:35.159Z,48.50
2017-07-18T17:53:03.332Z,48.60
2017-07-18T17:55:31.501Z,48.50
2017-07-18T17:57:59.646Z,48.60
2017-07-18T18:00:27.835Z,48.80
2017-07-18T18:02:55.983Z,48.50
2017-07-18T18:05:24.901Z,48.60
2017-07-18T18:07:53.074Z,48.50
2017-07-18T18:10:21.230Z,49.00
2017-07-18T18:12:49.398Z,49.40
2017-07-18T18:15:18.369Z,49.80
2017-07-18T18:17:46.536Z,49.70
2017-07-18T18:20:14.679Z,49.80
2017-07-18T18:22:42.852Z,49.90
2017-07-18T18:25:11.035Z,49.80
2017-07-18T18:27:39.205Z,49.90
2017-07-18T18:30:07.389Z,49.70
2017-07-18T18:32:35.533Z,50.20
2017-07-18T18:35:03.678Z,50.30
2017-07-18T18:37:33.522Z,50.60
2017-07-18T18:40:02.159Z,50.60
2017-07-18T18:42:31.135Z,50.50
2017-07-18T18:44:59.323Z,50.50
2017-07-18T18:47:27.472Z,50.90
2017-07-18T18:49:55.633Z,51.40
2017-07-18T18:52:23.824Z,51.00
2017-07-18T18:54:52.006Z,51.30
2017-07-18T18:57:20.179Z,51.60
2017-07-18T18:59:48.358Z,51.60
2017-07-18T19:02:16.527Z,51.90
2017-07-18T19:04:44.713Z,51.60
2017-07-18T19:07:12.909Z,51.80
2017-07-18T19:09:41.060Z,53.80
2017-07-18T19:12:09.215Z,52.30
2017-07-18T19:14:37.413Z,52.20
2017-07-18T19:17:05.614Z,52.80
2017-07-18T19:19:33.790Z,53.90
2017-07-18T19:22:01.997Z,54.40
2017-07-18T19:24:30.143Z,55.40
2017-07-18T19:26:58.317Z,56.10
2017-07-18T19:29:26.485Z,56.90
2017-07-18T19:31:55.399Z,57.20
2017-07-18T19:34:23.574Z,57.10
2017-07-18T19:36:51.755Z,57.50
2017-07-18T19:39:19.901Z,57.60
2017-07-18T19:41:48.061Z,57.60
2017-07-18T19:44:17.011Z,58.00
2017-07-18T19:46:45.179Z,57.90
2017-07-18T19:49:13.326Z,58.10
2017-07-18T19:51:41.525Z,58.40
2017-07-18T19:54:09.707Z,58.30
2017-07-18T19:56:37.876Z,58.50
2017-07-18T19:59:06.072Z,58.50
2017-07-18T20:01:34.254Z,58.40
2017-07-18T20:04:02.410Z,58.70
2017-07-18T20:06:30.604Z,58.60
2017-07-18T20:08:59.593Z,58.70
2017-07-18T20:11:27.807Z,58.80
2017-07-18T20:13:56.844Z,59.00
2017-07-18T20:16:25.017Z,59.00
2017-07-18T20:18:53.192Z,59.40
2017-07-18T20:21:21.378Z,59.60
2017-07-18T20:23:49.550Z,59.40
2017-07-18T20:26:17.725Z,59.80
2017-07-18T20:28:45.901Z,59.40
2017-07-18T20:31:14.051Z,59.40
2017-07-18T20:33:42.199Z,59.60
2017-07-18T20:36:11.144Z,59.80
2017-07-18T20:38:39.287Z,59.80
2017-07-18T20:41:07.441Z,59.70
2017-07-18T20:43:36.473Z,59.70
2017-07-18T20:46:04.622Z,59.60
2017-07-18T20:48:32.774Z,59.80
2017-07-18T20:51:01.741Z,60.10
2017-07-18T20:53:29.910Z,60.00
2017-07-18T20:55:58.066Z,59.50
2017-07-18T20:58:26.251Z,59.60
2017-07-18T21:00:54.421Z,59.50
2017-07-18T21:03:22.615Z,59.60
2017-07-18T21:05:50.825Z,59.50
2017-07-18T21:08:19.752Z,59.50
2017-07-18T21:10:47.921Z,59.50
2017-07-18T21:13:16.099Z,59.60
2017-07-18T21:15:44.246Z,59.90
2017-07-18T21:18:12.407Z,60.00
2017-07-18T21:20:41.373Z,60.30
2017-07-18T21:23:09.554Z,60.10
2017-07-18T21:25:37.732Z,60.50
2017-07-18T21:28:05.932Z,60.30
2017-07-18T21:30:34.868Z,60.80
2017-07-18T21:33:03.032Z,60.80
2017-07-18T21:35:31.215Z,60.60
2017-07-18T21:37:59.403Z,60.30
2017-07-18T21:40:27.555Z,60.90
2017-07-18T21:42:55.734Z,60.50
2017-07-18T21:45:23.882Z,61.10
2017-07-18T21:47:52.030Z,60.70
2017-07-18T21:50:20.992Z,60.80
2017-07-18T21:52:49.146Z,60.50
2017-07-18T21:55:17.291Z,60.50
2017-07-18T21:57:45.485Z,60.60
2017-07-18T22:00:13.641Z,60.30
2017-07-18T22:02:41.799Z,60.40
2017-07-18T22:05:10.775Z,60.30
2017-07-18T22:07:38.927Z,60.20
2017-07-18T22:10:07.097Z,60.40
2017-07-18T22:12:35.305Z,60.40
2017-07-18T22:15:03.476Z,60.50
2017-07-18T22:17:31.640Z,60.50
2017-07-18T22:19:59.832Z,60.80
2017-07-18T22:22:27.997Z,61.00
2017-07-18T22:24:56.172Z,60.60
2017-07-18T22:27:24.365Z,60.60
2017-07-18T22:29:52.811Z,60.50
2017-07-18T22:32:21.788Z,62.50
2017-07-18T22:34:49.960Z,61.70
2017-07-18T22:37:18.110Z,61.40
2017-07-18T22:39:46.276Z,61.70
2017-07-18T22:42:14.463Z,61.20
2017-07-18T22:44:42.619Z,60.80
2017-07-18T22:47:10.767Z,60.60
2017-07-18T22:49:38.981Z,61.20
2017-07-18T22:52:07.139Z,61.50
2017-07-18T22:54:37.018Z,62.20
2017-07-18T22:57:05.211Z,62.00
2017-07-18T22:59:33.387Z,61.90
2017-07-18T23:02:01.568Z,62.20
2017-07-18T23:04:30.536Z,63.30
2017-07-18T23:06:58.710Z,62.50
2017-07-18T23:09:26.861Z,62.70
2017-07-18T23:11:55.057Z,62.80
2017-07-18T23:14:23.241Z,62.90
2017-07-18T23:16:51.389Z,63.10
2017-07-18T23:19:19.576Z,63.20
2017-07-18T23:21:47.740Z,62.90
2017-07-18T23:24:15.926Z,63.20
2017-07-18T23:26:44.099Z,63.40
2017-07-18T23:29:12.256Z,63.70
2017-07-18T23:31:40.405Z,63.60
2017-07-18T23:34:08.605Z,63.60
2017-07-18T23:36:36.773Z,63.50
2017-07-18T23:39:04.947Z,63.90
2017-07-18T23:41:33.157Z,64.10
2017-07-18T23:44:01.321Z,64.20
2017-07-18T23:46:29.506Z,64.50
2017-07-18T23:48:57.697Z,64.60
2017-07-18T23:51:25.849Z,65.00
2017-07-18T23:53:54.006Z,64.80
2017-07-18T23:56:22.205Z,64.80
2017-07-18T23:58:50.353Z,64.80
